sensor_id;sensor_type;location;lat;lon;timestamp;P1;durP1;ratioP1;P2;durP2;ratioP2
4585;SDS011;2305;50.118;8.952;2022-09-12T00:01:19;10.40;;;7.30;;
4585;SDS011;2305;50.118;8.952;2022-09-12T00:03:50;12.27;;;6.93;;
4585;SDS011;2305;50.118;8.952;2022-09-12T00:06:19;8.20;;;7.00;;
4585;SDS011;2305;50.118;8.952;2022-09-12T00:08:52;9.50;;;7.23;;
4585;SDS011;2305;50.118;8.952;2022-09-12T00:11:22;9.67;;;7.10;;
4585;SDS011;2305;50.118;8.952;2022-09-12T00:13:55;11.63;;;6.90;;
4585;SDS011;2305;50.118;8.952;2022-09-12T00:16:25;8.27;;;6.33;;
4585;SDS011;2305;50.118;8.952;2022-09-12T00:18:54;10.80;;;7.10;;
4585;SDS011;2305;50.118;8.952;2022-09-12T00:21:23;12.87;;;7.30;;
4585;SDS011;2305;50.118;8.952;2022-09-12T00:23:51;9.00;;;7.50;;
4585;SDS011;2305;50.118;8.952;2022-09-12T00:26:21;10.87;;;7.50;;
4585;SDS011;2305;50.118;8.952;2022-09-12T00:28:49;10.70;;;7.80;;
4585;SDS011;2305;50.118;8.952;2022-09-12T00:31:20;8.23;;;6.17;;
4585;SDS011;2305;50.118;8.952;2022-09-12T00:33:50;11.50;;;6.73;;
4585;SDS011;2305;50.118;8.952;2022-09-12T00:36:22;8.47;;;6.80;;
4585;SDS011;2305;50.118;8.952;2022-09-12T00:38:52;11.03;;;7.73;;
4585;SDS011;2305;50.118;8.952;2022-09-12T00:41:22;8.33;;;6.70;;
4585;SDS011;2305;50.118;8.952;2022-09-12T00:43:54;11.57;;;7.20;;
4585;SDS011;2305;50.118;8.952;2022-09-12T00:46:33;8.10;;;6.60;;
4585;SDS011;2305;50.118;8.952;2022-09-12T00:49:04;9.70;;;6.53;;
4585;SDS011;2305;50.118;8.952;2022-09-12T00:51:38;8.50;;;6.87;;
4585;SDS011;2305;50.118;8.952;2022-09-12T00:54:11;9.43;;;7.50;;
4585;SDS011;2305;50.118;8.952;2022-09-12T00:56:45;11.13;;;6.53;;
4585;SDS011;2305;50.118;8.952;2022-09-12T00:59:18;9.07;;;6.70;;
4585;SDS011;2305;50.118;8.952;2022-09-12T01:01:50;9.53;;;7.37;;
4585;SDS011;2305;50.118;8.952;2022-09-12T01:04:20;8.20;;;6.50;;
4585;SDS011;2305;50.118;8.952;2022-09-12T01:06:49;11.60;;;6.77;;
4585;SDS011;2305;50.118;8.952;2022-09-12T01:09:20;8.83;;;6.67;;
4585;SDS011;2305;50.118;8.952;2022-09-12T01:11:49;12.97;;;7.27;;
4585;SDS011;2305;50.118;8.952;2022-09-12T01:14:19;14.03;;;7.27;;
4585;SDS011;2305;50.118;8.952;2022-09-12T01:16:47;12.10;;;7.00;;
4585;SDS011;2305;50.118;8.952;2022-09-12T01:19:24;11.57;;;7.00;;
4585;SDS011;2305;50.118;8.952;2022-09-12T01:22:16;9.00;;;6.77;;
4585;SDS011;2305;50.118;8.952;2022-09-12T01:24:58;11.23;;;7.83;;
4585;SDS011;2305;50.118;8.952;2022-09-12T01:27:39;11.83;;;6.83;;
4585;SDS011;2305;50.118;8.952;2022-09-12T01:30:30;12.80;;;7.30;;
4585;SDS011;2305;50.118;8.952;2022-09-12T01:33:16;10.03;;;7.13;;
4585;SDS011;2305;50.118;8.952;2022-09-12T01:38:52;13.80;;;7.63;;
4585;SDS011;2305;50.118;8.952;2022-09-12T01:41:26;9.50;;;7.20;;
4585;SDS011;2305;50.118;8.952;2022-09-12T01:43:59;9.97;;;6.40;;
4585;SDS011;2305;50.118;8.952;2022-09-12T01:46:33;10.67;;;7.80;;
4585;SDS011;2305;50.118;8.952;2022-09-12T01:49:11;8.80;;;7.30;;
4585;SDS011;2305;50.118;8.952;2022-09-12T01:51:46;12.00;;;7.80;;
4585;SDS011;2305;50.118;8.952;2022-09-12T01:54:23;12.40;;;7.10;;
4585;SDS011;2305;50.118;8.952;2022-09-12T01:56:58;10.40;;;7.47;;
4585;SDS011;2305;50.118;8.952;2022-09-12T01:59:32;11.70;;;7.93;;
4585;SDS011;2305;50.118;8.952;2022-09-12T02:02:05;11.07;;;7.47;;
4585;SDS011;2305;50.118;8.952;2022-09-12T02:04:38;14.90;;;6.83;;
4585;SDS011;2305;50.118;8.952;2022-09-12T02:07:15;16.57;;;6.73;;
4585;SDS011;2305;50.118;8.952;2022-09-12T02:09:50;7.73;;;6.33;;
4585;SDS011;2305;50.118;8.952;2022-09-12T02:12:24;10.30;;;6.37;;
4585;SDS011;2305;50.118;8.952;2022-09-12T02:14:56;7.97;;;6.80;;
4585;SDS011;2305;50.118;8.952;2022-09-12T02:17:30;9.83;;;5.80;;
4585;SDS011;2305;50.118;8.952;2022-09-12T02:20:04;6.67;;;5.53;;
4585;SDS011;2305;50.118;8.952;2022-09-12T02:22:56;7.83;;;5.40;;
4585;SDS011;2305;50.118;8.952;2022-09-12T02:25:26;11.00;;;7.13;;
4585;SDS011;2305;50.118;8.952;2022-09-12T02:27:57;14.10;;;7.47;;
4585;SDS011;2305;50.118;8.952;2022-09-12T02:30:33;8.53;;;6.83;;
4585;SDS011;2305;50.118;8.952;2022-09-12T02:33:12;8.20;;;6.20;;
4585;SDS011;2305;50.118;8.952;2022-09-12T02:35:49;9.73;;;6.23;;
4585;SDS011;2305;50.118;8.952;2022-09-12T02:38:25;9.33;;;6.17;;
4585;SDS011;2305;50.118;8.952;2022-09-12T02:40:59;9.50;;;6.80;;
4585;SDS011;2305;50.118;8.952;2022-09-12T02:43:27;10.90;;;6.50;;
4585;SDS011;2305;50.118;8.952;2022-09-12T02:45:55;9.50;;;6.10;;
4585;SDS011;2305;50.118;8.952;2022-09-12T02:48:28;7.90;;;5.80;;
4585;SDS011;2305;50.118;8.952;2022-09-12T02:51:02;9.97;;;6.63;;
4585;SDS011;2305;50.118;8.952;2022-09-12T02:53:30;9.97;;;7.10;;
4585;SDS011;2305;50.118;8.952;2022-09-12T02:55:59;7.20;;;5.40;;
4585;SDS011;2305;50.118;8.952;2022-09-12T02:58:29;11.63;;;6.30;;
4585;SDS011;2305;50.118;8.952;2022-09-12T03:01:07;9.90;;;5.93;;
4585;SDS011;2305;50.118;8.952;2022-09-12T03:03:52;13.50;;;6.70;;
4585;SDS011;2305;50.118;8.952;2022-09-12T03:06:34;12.07;;;5.93;;
4585;SDS011;2305;50.118;8.952;2022-09-12T03:09:11;6.53;;;5.83;;
4585;SDS011;2305;50.118;8.952;2022-09-12T03:11:49;10.43;;;6.87;;
4585;SDS011;2305;50.118;8.952;2022-09-12T03:14:45;9.83;;;6.27;;
4585;SDS011;2305;50.118;8.952;2022-09-12T03:17:29;7.00;;;5.70;;
4585;SDS011;2305;50.118;8.952;2022-09-12T03:20:10;8.70;;;5.90;;
4585;SDS011;2305;50.118;8.952;2022-09-12T03:22:45;6.40;;;5.67;;
4585;SDS011;2305;50.118;8.952;2022-09-12T03:25:19;10.47;;;5.20;;
4585;SDS011;2305;50.118;8.952;2022-09-12T03:27:52;8.00;;;5.80;;
4585;SDS011;2305;50.118;8.952;2022-09-12T03:30:25;14.17;;;5.70;;
4585;SDS011;2305;50.118;8.952;2022-09-12T03:32:53;13.03;;;6.23;;
4585;SDS011;2305;50.118;8.952;2022-09-12T03:35:23;10.40;;;7.00;;
4585;SDS011;2305;50.118;8.952;2022-09-12T03:37:52;7.60;;;5.70;;
4585;SDS011;2305;50.118;8.952;2022-09-12T03:40:19;8.40;;;6.17;;
4585;SDS011;2305;50.118;8.952;2022-09-12T03:42:48;7.93;;;6.37;;
4585;SDS011;2305;50.118;8.952;2022-09-12T03:45:15;8.40;;;6.70;;
4585;SDS011;2305;50.118;8.952;2022-09-12T03:47:43;7.53;;;5.23;;
4585;SDS011;2305;50.118;8.952;2022-09-12T03:50:12;9.57;;;7.70;;
4585;SDS011;2305;50.118;8.952;2022-09-12T03:52:41;11.57;;;6.70;;
4585;SDS011;2305;50.118;8.952;2022-09-12T03:55:11;15.27;;;6.97;;
4585;SDS011;2305;50.118;8.952;2022-09-12T03:57:41;11.83;;;6.33;;
4585;SDS011;2305;50.118;8.952;2022-09-12T04:00:10;14.73;;;6.50;;
4585;SDS011;2305;50.118;8.952;2022-09-12T04:02:45;11.93;;;6.40;;
4585;SDS011;2305;50.118;8.952;2022-09-12T04:05:13;10.93;;;6.17;;
4585;SDS011;2305;50.118;8.952;2022-09-12T04:07:42;13.73;;;6.53;;
4585;SDS011;2305;50.118;8.952;2022-09-12T04:10:12;9.70;;;5.43;;
4585;SDS011;2305;50.118;8.952;2022-09-12T04:12:42;23.17;;;7.03;;
4585;SDS011;2305;50.118;8.952;2022-09-12T04:15:11;7.50;;;6.10;;
4585;SDS011;2305;50.118;8.952;2022-09-12T04:17:39;12.00;;;6.30;;
4585;SDS011;2305;50.118;8.952;2022-09-12T04:20:07;9.60;;;6.60;;
4585;SDS011;2305;50.118;8.952;2022-09-12T04:22:36;7.20;;;6.10;;
4585;SDS011;2305;50.118;8.952;2022-09-12T04:25:05;9.57;;;6.10;;
4585;SDS011;2305;50.118;8.952;2022-09-12T04:27:35;13.63;;;6.57;;
4585;SDS011;2305;50.118;8.952;2022-09-12T04:30:03;9.47;;;6.47;;
4585;SDS011;2305;50.118;8.952;2022-09-12T04:32:31;11.07;;;6.90;;
4585;SDS011;2305;50.118;8.952;2022-09-12T04:34:59;6.77;;;5.13;;
4585;SDS011;2305;50.118;8.952;2022-09-12T04:37:27;6.00;;;5.40;;
4585;SDS011;2305;50.118;8.952;2022-09-12T04:39:55;7.30;;;5.90;;
4585;SDS011;2305;50.118;8.952;2022-09-12T04:42:25;8.17;;;5.83;;
4585;SDS011;2305;50.118;8.952;2022-09-12T04:44:53;13.00;;;6.57;;
4585;SDS011;2305;50.118;8.952;2022-09-12T04:47:21;8.53;;;6.83;;
4585;SDS011;2305;50.118;8.952;2022-09-12T04:49:49;8.83;;;6.30;;
4585;SDS011;2305;50.118;8.952;2022-09-12T04:52:17;10.63;;;6.60;;
4585;SDS011;2305;50.118;8.952;2022-09-12T04:54:45;10.03;;;6.53;;
4585;SDS011;2305;50.118;8.952;2022-09-12T04:57:13;8.90;;;6.47;;
4585;SDS011;2305;50.118;8.952;2022-09-12T04:59:45;7.17;;;5.70;;
4585;SDS011;2305;50.118;8.952;2022-09-12T05:02:12;9.77;;;6.20;;
4585;SDS011;2305;50.118;8.952;2022-09-12T05:04:41;17.20;;;6.93;;
4585;SDS011;2305;50.118;8.952;2022-09-12T05:07:09;9.30;;;5.73;;
4585;SDS011;2305;50.118;8.952;2022-09-12T05:09:37;8.00;;;6.10;;
4585;SDS011;2305;50.118;8.952;2022-09-12T05:12:05;9.03;;;6.20;;
4585;SDS011;2305;50.118;8.952;2022-09-12T05:14:33;9.20;;;6.10;;
4585;SDS011;2305;50.118;8.952;2022-09-12T05:17:03;10.60;;;5.90;;
4585;SDS011;2305;50.118;8.952;2022-09-12T05:19:31;13.53;;;6.33;;
4585;SDS011;2305;50.118;8.952;2022-09-12T05:22:00;9.37;;;6.20;;
4585;SDS011;2305;50.118;8.952;2022-09-12T05:24:27;7.70;;;5.60;;
4585;SDS011;2305;50.118;8.952;2022-09-12T05:26:55;10.30;;;6.50;;
4585;SDS011;2305;50.118;8.952;2022-09-12T05:29:28;10.33;;;5.97;;
4585;SDS011;2305;50.118;8.952;2022-09-12T05:31:56;14.53;;;6.00;;
4585;SDS011;2305;50.118;8.952;2022-09-12T05:34:26;8.03;;;6.40;;
4585;SDS011;2305;50.118;8.952;2022-09-12T05:36:54;11.37;;;6.00;;
4585;SDS011;2305;50.118;8.952;2022-09-12T05:39:22;10.80;;;6.20;;
4585;SDS011;2305;50.118;8.952;2022-09-12T05:41:50;9.40;;;5.73;;
4585;SDS011;2305;50.118;8.952;2022-09-12T05:44:20;19.13;;;6.83;;
4585;SDS011;2305;50.118;8.952;2022-09-12T05:46:47;7.17;;;6.07;;
4585;SDS011;2305;50.118;8.952;2022-09-12T05:49:16;8.67;;;6.13;;
4585;SDS011;2305;50.118;8.952;2022-09-12T05:51:46;13.90;;;6.00;;
4585;SDS011;2305;50.118;8.952;2022-09-12T05:54:14;10.20;;;6.40;;
4585;SDS011;2305;50.118;8.952;2022-09-12T05:56:44;10.60;;;5.27;;
4585;SDS011;2305;50.118;8.952;2022-09-12T05:59:14;9.37;;;6.00;;
4585;SDS011;2305;50.118;8.952;2022-09-12T06:01:43;9.30;;;5.90;;
4585;SDS011;2305;50.118;8.952;2022-09-12T06:04:11;11.83;;;6.20;;
4585;SDS011;2305;50.118;8.952;2022-09-12T06:06:40;8.07;;;6.00;;
4585;SDS011;2305;50.118;8.952;2022-09-12T06:09:12;9.10;;;5.70;;
4585;SDS011;2305;50.118;8.952;2022-09-12T06:11:41;6.40;;;5.70;;
4585;SDS011;2305;50.118;8.952;2022-09-12T06:14:11;7.60;;;5.97;;
4585;SDS011;2305;50.118;8.952;2022-09-12T06:16:40;8.03;;;5.83;;
4585;SDS011;2305;50.118;8.952;2022-09-12T06:19:11;10.40;;;5.73;;
4585;SDS011;2305;50.118;8.952;2022-09-12T06:21:41;9.40;;;6.50;;
4585;SDS011;2305;50.118;8.952;2022-09-12T06:24:10;9.23;;;6.10;;
4585;SDS011;2305;50.118;8.952;2022-09-12T06:26:39;6.40;;;5.20;;
4585;SDS011;2305;50.118;8.952;2022-09-12T06:29:08;7.80;;;5.80;;
4585;SDS011;2305;50.118;8.952;2022-09-12T06:31:38;7.30;;;5.57;;
4585;SDS011;2305;50.118;8.952;2022-09-12T06:34:11;10.73;;;7.20;;
4585;SDS011;2305;50.118;8.952;2022-09-12T06:36:41;7.47;;;6.07;;
4585;SDS011;2305;50.118;8.952;2022-09-12T06:39:12;8.73;;;6.83;;
4585;SDS011;2305;50.118;8.952;2022-09-12T06:41:41;9.00;;;5.77;;
4585;SDS011;2305;50.118;8.952;2022-09-12T06:44:11;7.00;;;5.90;;
4585;SDS011;2305;50.118;8.952;2022-09-12T06:46:42;11.80;;;5.40;;
4585;SDS011;2305;50.118;8.952;2022-09-12T06:49:10;7.97;;;5.50;;
4585;SDS011;2305;50.118;8.952;2022-09-12T06:51:38;8.70;;;6.20;;
4585;SDS011;2305;50.118;8.952;2022-09-12T06:54:12;9.53;;;7.27;;
4585;SDS011;2305;50.118;8.952;2022-09-12T06:56:42;14.60;;;7.57;;
4585;SDS011;2305;50.118;8.952;2022-09-12T06:59:10;11.53;;;7.80;;
4585;SDS011;2305;50.118;8.952;2022-09-12T07:01:39;10.73;;;7.40;;
4585;SDS011;2305;50.118;8.952;2022-09-12T07:04:07;14.00;;;8.60;;
4585;SDS011;2305;50.118;8.952;2022-09-12T07:06:37;12.80;;;7.63;;
4585;SDS011;2305;50.118;8.952;2022-09-12T07:09:06;13.10;;;9.00;;
4585;SDS011;2305;50.118;8.952;2022-09-12T07:11:39;12.50;;;9.30;;
4585;SDS011;2305;50.118;8.952;2022-09-12T07:14:11;12.00;;;8.93;;
4585;SDS011;2305;50.118;8.952;2022-09-12T07:16:41;12.90;;;8.73;;
4585;SDS011;2305;50.118;8.952;2022-09-12T07:19:09;10.90;;;7.63;;
4585;SDS011;2305;50.118;8.952;2022-09-12T07:21:37;10.23;;;8.27;;
4585;SDS011;2305;50.118;8.952;2022-09-12T07:24:08;11.20;;;7.60;;
4585;SDS011;2305;50.118;8.952;2022-09-12T07:26:39;15.00;;;8.03;;
4585;SDS011;2305;50.118;8.952;2022-09-12T07:32:01;11.20;;;7.47;;
4585;SDS011;2305;50.118;8.952;2022-09-12T07:34:30;10.00;;;6.80;;
4585;SDS011;2305;50.118;8.952;2022-09-12T07:36:59;14.93;;;7.40;;
4585;SDS011;2305;50.118;8.952;2022-09-12T07:39:27;10.33;;;6.90;;
4585;SDS011;2305;50.118;8.952;2022-09-12T07:41:56;9.13;;;6.40;;
4585;SDS011;2305;50.118;8.952;2022-09-12T07:44:25;6.20;;;4.93;;
4585;SDS011;2305;50.118;8.952;2022-09-12T07:46:54;6.03;;;4.90;;
4585;SDS011;2305;50.118;8.952;2022-09-12T07:49:22;6.20;;;5.13;;
4585;SDS011;2305;50.118;8.952;2022-09-12T07:51:52;5.90;;;5.30;;
4585;SDS011;2305;50.118;8.952;2022-09-12T07:54:20;6.43;;;5.20;;
4585;SDS011;2305;50.118;8.952;2022-09-12T07:56:48;7.33;;;5.93;;
4585;SDS011;2305;50.118;8.952;2022-09-12T07:59:17;7.33;;;4.90;;
4585;SDS011;2305;50.118;8.952;2022-09-12T08:02:09;6.90;;;5.20;;
4585;SDS011;2305;50.118;8.952;2022-09-12T08:04:43;6.03;;;4.70;;
4585;SDS011;2305;50.118;8.952;2022-09-12T08:07:11;6.60;;;5.73;;
4585;SDS011;2305;50.118;8.952;2022-09-12T08:09:42;11.90;;;6.17;;
4585;SDS011;2305;50.118;8.952;2022-09-12T08:12:10;6.50;;;5.30;;
4585;SDS011;2305;50.118;8.952;2022-09-12T08:14:39;5.93;;;4.90;;
4585;SDS011;2305;50.118;8.952;2022-09-12T08:17:07;6.17;;;4.87;;
4585;SDS011;2305;50.118;8.952;2022-09-12T08:19:38;6.80;;;5.40;;
4585;SDS011;2305;50.118;8.952;2022-09-12T08:22:05;5.13;;;4.63;;
4585;SDS011;2305;50.118;8.952;2022-09-12T08:24:34;6.50;;;5.77;;
4585;SDS011;2305;50.118;8.952;2022-09-12T08:27:02;6.40;;;4.97;;
4585;SDS011;2305;50.118;8.952;2022-09-12T08:29:30;5.40;;;4.60;;
4585;SDS011;2305;50.118;8.952;2022-09-12T08:31:59;5.33;;;4.80;;
4585;SDS011;2305;50.118;8.952;2022-09-12T08:34:29;6.40;;;5.20;;
4585;SDS011;2305;50.118;8.952;2022-09-12T08:36:57;6.60;;;5.30;;
4585;SDS011;2305;50.118;8.952;2022-09-12T08:39:25;7.10;;;5.43;;
4585;SDS011;2305;50.118;8.952;2022-09-12T08:41:57;6.30;;;5.70;;
4585;SDS011;2305;50.118;8.952;2022-09-12T08:44:35;7.83;;;4.90;;
4585;SDS011;2305;50.118;8.952;2022-09-12T08:47:16;7.50;;;5.20;;
4585;SDS011;2305;50.118;8.952;2022-09-12T08:49:56;6.37;;;5.30;;
4585;SDS011;2305;50.118;8.952;2022-09-12T08:52:30;6.97;;;4.80;;
4585;SDS011;2305;50.118;8.952;2022-09-12T08:55:09;5.90;;;4.90;;
4585;SDS011;2305;50.118;8.952;2022-09-12T08:57:48;5.50;;;4.90;;
4585;SDS011;2305;50.118;8.952;2022-09-12T09:00:17;8.33;;;5.60;;
4585;SDS011;2305;50.118;8.952;2022-09-12T09:02:56;7.10;;;5.27;;
4585;SDS011;2305;50.118;8.952;2022-09-12T09:05:41;7.07;;;5.00;;
4585;SDS011;2305;50.118;8.952;2022-09-12T09:08:22;8.33;;;5.53;;
4585;SDS011;2305;50.118;8.952;2022-09-12T09:11:03;8.10;;;5.17;;
4585;SDS011;2305;50.118;8.952;2022-09-12T09:13:43;9.67;;;5.50;;
4585;SDS011;2305;50.118;8.952;2022-09-12T09:16:37;5.67;;;5.07;;
4585;SDS011;2305;50.118;8.952;2022-09-12T09:19:10;7.27;;;5.43;;
4585;SDS011;2305;50.118;8.952;2022-09-12T09:21:43;6.40;;;5.43;;
4585;SDS011;2305;50.118;8.952;2022-09-12T09:24:20;13.87;;;6.17;;
4585;SDS011;2305;50.118;8.952;2022-09-12T09:26:53;5.57;;;4.60;;
4585;SDS011;2305;50.118;8.952;2022-09-12T09:29:25;7.60;;;5.00;;
4585;SDS011;2305;50.118;8.952;2022-09-12T09:32:00;6.60;;;4.60;;
4585;SDS011;2305;50.118;8.952;2022-09-12T09:34:34;5.80;;;4.90;;
4585;SDS011;2305;50.118;8.952;2022-09-12T09:37:04;6.67;;;5.67;;
4585;SDS011;2305;50.118;8.952;2022-09-12T09:39:43;9.07;;;6.47;;
4585;SDS011;2305;50.118;8.952;2022-09-12T09:42:22;6.10;;;5.03;;
4585;SDS011;2305;50.118;8.952;2022-09-12T09:44:58;9.90;;;5.37;;
4585;SDS011;2305;50.118;8.952;2022-09-12T09:47:29;7.00;;;5.30;;
4585;SDS011;2305;50.118;8.952;2022-09-12T09:49:58;9.13;;;4.73;;
4585;SDS011;2305;50.118;8.952;2022-09-12T09:52:26;6.37;;;4.80;;
4585;SDS011;2305;50.118;8.952;2022-09-12T09:54:58;7.10;;;5.10;;
4585;SDS011;2305;50.118;8.952;2022-09-12T09:57:38;5.57;;;5.07;;
4585;SDS011;2305;50.118;8.952;2022-09-12T10:00:23;8.50;;;4.80;;
4585;SDS011;2305;50.118;8.952;2022-09-12T10:02:57;6.03;;;5.17;;
4585;SDS011;2305;50.118;8.952;2022-09-12T10:05:29;6.80;;;4.80;;
4585;SDS011;2305;50.118;8.952;2022-09-12T10:08:00;6.03;;;4.83;;
4585;SDS011;2305;50.118;8.952;2022-09-12T10:10:32;11.50;;;5.00;;
4585;SDS011;2305;50.118;8.952;2022-09-12T10:13:06;4.93;;;4.43;;
4585;SDS011;2305;50.118;8.952;2022-09-12T10:15:36;8.50;;;4.10;;
4585;SDS011;2305;50.118;8.952;2022-09-12T10:18:06;6.50;;;4.33;;
4585;SDS011;2305;50.118;8.952;2022-09-12T10:20:37;5.23;;;3.97;;
4585;SDS011;2305;50.118;8.952;2022-09-12T10:23:17;5.73;;;3.83;;
4585;SDS011;2305;50.118;8.952;2022-09-12T10:25:56;4.70;;;3.70;;
4585;SDS011;2305;50.118;8.952;2022-09-12T10:28:30;5.97;;;4.57;;
4585;SDS011;2305;50.118;8.952;2022-09-12T10:31:02;4.23;;;3.83;;
4585;SDS011;2305;50.118;8.952;2022-09-12T10:33:31;4.70;;;4.10;;
4585;SDS011;2305;50.118;8.952;2022-09-12T10:36:08;6.47;;;4.13;;
4585;SDS011;2305;50.118;8.952;2022-09-12T10:38:36;7.90;;;5.40;;
4585;SDS011;2305;50.118;8.952;2022-09-12T10:41:05;7.67;;;3.87;;
4585;SDS011;2305;50.118;8.952;2022-09-12T10:43:36;5.60;;;4.10;;
4585;SDS011;2305;50.118;8.952;2022-09-12T10:46:21;5.57;;;4.20;;
4585;SDS011;2305;50.118;8.952;2022-09-12T10:51:54;4.90;;;4.10;;
4585;SDS011;2305;50.118;8.952;2022-09-12T10:54:25;6.23;;;4.80;;
4585;SDS011;2305;50.118;8.952;2022-09-12T10:57:07;11.83;;;4.70;;
4585;SDS011;2305;50.118;8.952;2022-09-12T10:59:52;5.63;;;5.07;;
4585;SDS011;2305;50.118;8.952;2022-09-12T11:02:31;4.90;;;4.40;;
4585;SDS011;2305;50.118;8.952;2022-09-12T11:05:13;7.30;;;4.40;;
4585;SDS011;2305;50.118;8.952;2022-09-12T11:07:50;4.83;;;4.03;;
4585;SDS011;2305;50.118;8.952;2022-09-12T11:10:24;4.60;;;4.10;;
4585;SDS011;2305;50.118;8.952;2022-09-12T11:13:10;4.70;;;3.97;;
4585;SDS011;2305;50.118;8.952;2022-09-12T11:15:53;6.47;;;4.77;;
4585;SDS011;2305;50.118;8.952;2022-09-12T11:18:40;6.10;;;4.90;;
4585;SDS011;2305;50.118;8.952;2022-09-12T11:21:26;7.83;;;4.87;;
4585;SDS011;2305;50.118;8.952;2022-09-12T11:24:07;5.60;;;4.33;;
4585;SDS011;2305;50.118;8.952;2022-09-12T11:26:49;5.43;;;4.60;;
4585;SDS011;2305;50.118;8.952;2022-09-12T11:29:27;6.90;;;4.60;;
4585;SDS011;2305;50.118;8.952;2022-09-12T11:32:13;4.27;;;3.90;;
4585;SDS011;2305;50.118;8.952;2022-09-12T11:35:01;5.27;;;4.40;;
4585;SDS011;2305;50.118;8.952;2022-09-12T11:37:46;7.60;;;4.20;;
4585;SDS011;2305;50.118;8.952;2022-09-12T11:40:26;5.93;;;4.80;;
4585;SDS011;2305;50.118;8.952;2022-09-12T11:42:57;7.03;;;4.47;;
4585;SDS011;2305;50.118;8.952;2022-09-12T11:45:33;6.03;;;4.27;;
4585;SDS011;2305;50.118;8.952;2022-09-12T11:48:10;4.33;;;3.93;;
4585;SDS011;2305;50.118;8.952;2022-09-12T11:50:44;6.33;;;3.90;;
4585;SDS011;2305;50.118;8.952;2022-09-12T11:53:14;4.40;;;4.00;;
4585;SDS011;2305;50.118;8.952;2022-09-12T11:55:48;6.43;;;4.90;;
4585;SDS011;2305;50.118;8.952;2022-09-12T11:58:22;4.77;;;3.90;;
4585;SDS011;2305;50.118;8.952;2022-09-12T12:00:55;5.47;;;4.20;;
4585;SDS011;2305;50.118;8.952;2022-09-12T12:03:30;5.43;;;4.33;;
4585;SDS011;2305;50.118;8.952;2022-09-12T12:06:03;4.90;;;4.40;;
4585;SDS011;2305;50.118;8.952;2022-09-12T12:08:40;4.30;;;3.90;;
4585;SDS011;2305;50.118;8.952;2022-09-12T12:11:13;5.17;;;4.00;;
4585;SDS011;2305;50.118;8.952;2022-09-12T12:13:44;4.77;;;3.90;;
4585;SDS011;2305;50.118;8.952;2022-09-12T12:16:17;3.67;;;3.23;;
4585;SDS011;2305;50.118;8.952;2022-09-12T12:18:52;4.83;;;3.53;;
4585;SDS011;2305;50.118;8.952;2022-09-12T12:21:30;6.97;;;3.23;;
4585;SDS011;2305;50.118;8.952;2022-09-12T12:24:11;5.20;;;3.43;;
4585;SDS011;2305;50.118;8.952;2022-09-12T12:26:44;4.10;;;3.40;;
4585;SDS011;2305;50.118;8.952;2022-09-12T12:29:38;4.50;;;3.63;;
4585;SDS011;2305;50.118;8.952;2022-09-12T12:32:25;3.13;;;2.63;;
4585;SDS011;2305;50.118;8.952;2022-09-12T12:35:00;3.03;;;2.70;;
4585;SDS011;2305;50.118;8.952;2022-09-12T12:37:51;3.83;;;2.57;;
4585;SDS011;2305;50.118;8.952;2022-09-12T12:40:26;3.80;;;2.80;;
4585;SDS011;2305;50.118;8.952;2022-09-12T12:42:57;3.73;;;2.60;;
4585;SDS011;2305;50.118;8.952;2022-09-12T12:48:28;4.07;;;3.50;;
4585;SDS011;2305;50.118;8.952;2022-09-12T12:57:16;4.20;;;3.43;;
4585;SDS011;2305;50.118;8.952;2022-09-12T12:59:51;4.50;;;3.43;;
4585;SDS011;2305;50.118;8.952;2022-09-12T13:02:26;3.70;;;2.87;;
4585;SDS011;2305;50.118;8.952;2022-09-12T13:04:58;3.00;;;2.70;;
4585;SDS011;2305;50.118;8.952;2022-09-12T13:07:29;4.40;;;3.00;;
4585;SDS011;2305;50.118;8.952;2022-09-12T13:10:02;6.00;;;3.17;;
4585;SDS011;2305;50.118;8.952;2022-09-12T13:12:33;3.70;;;3.10;;
4585;SDS011;2305;50.118;8.952;2022-09-12T13:15:27;3.20;;;2.90;;
4585;SDS011;2305;50.118;8.952;2022-09-12T13:18:15;6.80;;;2.90;;
4585;SDS011;2305;50.118;8.952;2022-09-12T13:20:50;2.87;;;2.60;;
4585;SDS011;2305;50.118;8.952;2022-09-12T13:23:22;3.43;;;2.50;;
4585;SDS011;2305;50.118;8.952;2022-09-12T13:25:51;3.60;;;2.97;;
4585;SDS011;2305;50.118;8.952;2022-09-12T13:28:23;2.93;;;2.50;;
4585;SDS011;2305;50.118;8.952;2022-09-12T13:30:56;4.17;;;2.33;;
4585;SDS011;2305;50.118;8.952;2022-09-12T13:33:33;3.60;;;2.33;;
4585;SDS011;2305;50.118;8.952;2022-09-12T13:36:16;2.50;;;2.30;;
4585;SDS011;2305;50.118;8.952;2022-09-12T13:39:05;2.60;;;2.40;;
4585;SDS011;2305;50.118;8.952;2022-09-12T13:44:55;3.33;;;2.50;;
4585;SDS011;2305;50.118;8.952;2022-09-12T13:47:26;3.20;;;2.60;;
4585;SDS011;2305;50.118;8.952;2022-09-12T13:49:59;2.60;;;2.17;;
4585;SDS011;2305;50.118;8.952;2022-09-12T13:52:29;3.30;;;2.70;;
4585;SDS011;2305;50.118;8.952;2022-09-12T13:55:01;3.77;;;2.70;;
4585;SDS011;2305;50.118;8.952;2022-09-12T13:57:35;3.77;;;3.30;;
4585;SDS011;2305;50.118;8.952;2022-09-12T14:00:05;3.43;;;2.40;;
4585;SDS011;2305;50.118;8.952;2022-09-12T14:02:46;3.70;;;2.77;;
4585;SDS011;2305;50.118;8.952;2022-09-12T14:05:18;3.33;;;2.73;;
4585;SDS011;2305;50.118;8.952;2022-09-12T14:07:51;4.57;;;2.70;;
4585;SDS011;2305;50.118;8.952;2022-09-12T14:10:25;3.13;;;2.23;;
4585;SDS011;2305;50.118;8.952;2022-09-12T14:12:57;5.50;;;2.90;;
4585;SDS011;2305;50.118;8.952;2022-09-12T14:15:28;5.33;;;3.00;;
4585;SDS011;2305;50.118;8.952;2022-09-12T14:18:00;4.27;;;2.37;;
4585;SDS011;2305;50.118;8.952;2022-09-12T14:20:30;2.77;;;2.50;;
4585;SDS011;2305;50.118;8.952;2022-09-12T14:23:14;3.47;;;3.10;;
4585;SDS011;2305;50.118;8.952;2022-09-12T14:25:47;4.10;;;2.90;;
4585;SDS011;2305;50.118;8.952;2022-09-12T14:28:17;3.73;;;2.70;;
4585;SDS011;2305;50.118;8.952;2022-09-12T14:30:57;5.90;;;4.40;;
4585;SDS011;2305;50.118;8.952;2022-09-12T14:33:32;6.73;;;2.53;;
4585;SDS011;2305;50.118;8.952;2022-09-12T14:36:16;2.90;;;2.67;;
4585;SDS011;2305;50.118;8.952;2022-09-12T14:38:49;3.17;;;2.87;;
4585;SDS011;2305;50.118;8.952;2022-09-12T14:41:21;4.10;;;3.27;;
4585;SDS011;2305;50.118;8.952;2022-09-12T14:43:53;3.70;;;3.17;;
4585;SDS011;2305;50.118;8.952;2022-09-12T14:46:26;3.20;;;2.50;;
4585;SDS011;2305;50.118;8.952;2022-09-12T14:48:59;3.83;;;3.30;;
4585;SDS011;2305;50.118;8.952;2022-09-12T14:51:34;3.20;;;2.90;;
4585;SDS011;2305;50.118;8.952;2022-09-12T14:54:21;2.97;;;2.67;;
4585;SDS011;2305;50.118;8.952;2022-09-12T14:57:03;5.27;;;4.77;;
4585;SDS011;2305;50.118;8.952;2022-09-12T14:59:36;5.60;;;4.60;;
4585;SDS011;2305;50.118;8.952;2022-09-12T15:02:20;4.80;;;3.37;;
4585;SDS011;2305;50.118;8.952;2022-09-12T15:04:53;4.83;;;2.90;;
4585;SDS011;2305;50.118;8.952;2022-09-12T15:07:42;3.53;;;3.10;;
4585;SDS011;2305;50.118;8.952;2022-09-12T15:10:15;4.53;;;4.00;;
4585;SDS011;2305;50.118;8.952;2022-09-12T15:12:47;4.23;;;3.30;;
4585;SDS011;2305;50.118;8.952;2022-09-12T15:15:16;4.00;;;3.20;;
4585;SDS011;2305;50.118;8.952;2022-09-12T15:17:45;3.30;;;2.93;;
4585;SDS011;2305;50.118;8.952;2022-09-12T15:20:14;4.97;;;3.87;;
4585;SDS011;2305;50.118;8.952;2022-09-12T15:22:42;8.07;;;3.47;;
4585;SDS011;2305;50.118;8.952;2022-09-12T15:25:10;6.27;;;5.50;;
4585;SDS011;2305;50.118;8.952;2022-09-12T15:27:39;3.23;;;2.63;;
4585;SDS011;2305;50.118;8.952;2022-09-12T15:30:07;3.30;;;3.00;;
4585;SDS011;2305;50.118;8.952;2022-09-12T15:32:41;5.00;;;2.67;;
4585;SDS011;2305;50.118;8.952;2022-09-12T15:35:11;4.20;;;3.10;;
4585;SDS011;2305;50.118;8.952;2022-09-12T15:37:43;3.27;;;2.90;;
4585;SDS011;2305;50.118;8.952;2022-09-12T15:40:14;3.30;;;3.00;;
4585;SDS011;2305;50.118;8.952;2022-09-12T15:42:43;3.10;;;2.80;;
4585;SDS011;2305;50.118;8.952;2022-09-12T15:45:15;3.73;;;2.63;;
4585;SDS011;2305;50.118;8.952;2022-09-12T15:47:46;7.30;;;2.93;;
4585;SDS011;2305;50.118;8.952;2022-09-12T15:50:15;3.80;;;2.67;;
4585;SDS011;2305;50.118;8.952;2022-09-12T15:52:43;3.80;;;2.87;;
4585;SDS011;2305;50.118;8.952;2022-09-12T15:55:15;3.27;;;2.97;;
4585;SDS011;2305;50.118;8.952;2022-09-12T15:57:45;3.53;;;3.20;;
4585;SDS011;2305;50.118;8.952;2022-09-12T16:00:13;3.27;;;2.97;;
4585;SDS011;2305;50.118;8.952;2022-09-12T16:02:43;2.73;;;2.53;;
4585;SDS011;2305;50.118;8.952;2022-09-12T16:05:12;5.70;;;3.10;;
4585;SDS011;2305;50.118;8.952;2022-09-12T16:07:43;3.63;;;3.33;;
4585;SDS011;2305;50.118;8.952;2022-09-12T16:10:14;4.50;;;2.90;;